createdAt,value
2022-10-26T00:01:21.436Z,7.83
2022-10-26T00:06:25.194Z,7.67
2022-10-26T00:11:26.870Z,6.60
2022-10-26T00:16:28.614Z,7.10
2022-10-26T00:21:30.290Z,6.70
2022-10-26T00:26:31.997Z,6.70
2022-10-26T00:31:34.308Z,7.07
2022-10-26T00:36:35.989Z,7.00
2022-10-26T00:41:39.002Z,6.67
2022-10-26T00:46:40.641Z,7.17
2022-10-26T00:51:47.569Z,6.10
2022-10-26T00:56:50.738Z,7.10
2022-10-26T01:01:52.385Z,6.27
2022-10-26T01:06:54.029Z,5.77
2022-10-26T01:11:55.750Z,6.10
2022-10-26T01:17:16.114Z,6.70
2022-10-26T01:22:41.014Z,5.83
2022-10-26T01:27:44.335Z,6.20
2022-10-26T01:33:27.337Z,5.53
2022-10-26T01:38:57.919Z,6.00
2022-10-26T01:44:02.615Z,5.73
2022-10-26T01:49:07.770Z,5.53
2022-10-26T01:54:09.455Z,5.77
2022-10-26T01:59:48.676Z,6.00
2022-10-26T02:05:04.843Z,5.77
2022-10-26T02:10:33.393Z,6.03
2022-10-26T02:15:39.429Z,5.00
2022-10-26T02:20:44.832Z,5.63
2022-10-26T02:25:48.904Z,6.70
2022-10-26T02:30:51.056Z,5.40
2022-10-26T02:35:53.029Z,6.00
2022-10-26T02:40:54.649Z,6.47
2022-10-26T02:46:07.531Z,6.73
2022-10-26T02:51:54.791Z,6.30
2022-10-26T02:56:59.452Z,6.27
2022-10-26T03:02:01.124Z,6.10
2022-10-26T03:07:02.793Z,6.27
2022-10-26T03:12:04.807Z,5.90
2022-10-26T03:17:06.446Z,5.10
2022-10-26T03:22:08.088Z,6.60
2022-10-26T03:27:09.868Z,6.27
2022-10-26T03:32:11.559Z,6.30
2022-10-26T03:37:13.263Z,6.20
2022-10-26T03:42:14.914Z,6.57
2022-10-26T03:47:16.545Z,6.33
2022-10-26T03:52:18.238Z,5.80
2022-10-26T03:57:19.888Z,6.10
2022-10-26T04:02:21.533Z,5.70
2022-10-26T04:07:23.207Z,5.97
2022-10-26T04:12:24.869Z,6.20
2022-10-26T04:17:26.503Z,6.97
2022-10-26T04:22:28.226Z,6.07
2022-10-26T04:27:29.871Z,5.93
2022-10-26T04:32:31.574Z,6.47
2022-10-26T04:37:33.636Z,6.80
2022-10-26T04:42:45.135Z,6.70
2022-10-26T04:47:46.735Z,5.90
2022-10-26T04:52:50.565Z,6.47
2022-10-26T04:57:55.858Z,5.30
2022-10-26T05:03:04.110Z,5.43
2022-10-26T05:08:05.859Z,5.73
2022-10-26T05:13:07.505Z,5.90
2022-10-26T05:18:09.274Z,5.67
2022-10-26T05:23:11.761Z,4.70
2022-10-26T05:28:13.638Z,5.00
2022-10-26T05:33:15.375Z,5.67
2022-10-26T05:38:17.548Z,5.80
2022-10-26T05:43:19.912Z,6.70
2022-10-26T05:48:21.707Z,5.53
2022-10-26T05:53:23.423Z,5.13
2022-10-26T05:58:25.459Z,4.50
2022-10-26T06:03:56.739Z,5.90
2022-10-26T06:08:58.769Z,6.57
2022-10-26T06:14:01.182Z,5.60
2022-10-26T06:19:13.271Z,4.80
2022-10-26T06:24:22.121Z,5.20
2022-10-26T06:29:43.575Z,5.30
2022-10-26T06:34:46.945Z,5.60
2022-10-26T06:39:51.411Z,4.70
2022-10-26T06:44:55.814Z,5.20
2022-10-26T06:50:28.004Z,4.93
2022-10-26T06:55:29.639Z,5.63
2022-10-26T07:05:34.026Z,5.77
2022-10-26T07:10:38.783Z,6.00
2022-10-26T07:15:40.973Z,5.43
2022-10-26T07:20:42.690Z,5.70
2022-10-26T07:25:44.361Z,6.00
2022-10-26T07:30:46.042Z,5.93
2022-10-26T07:35:47.762Z,6.50
2022-10-26T07:40:50.445Z,7.00
2022-10-26T07:45:52.137Z,6.87
2022-10-26T07:50:53.800Z,6.53
2022-10-26T07:55:56.047Z,6.27
2022-10-26T08:00:57.819Z,6.40
2022-10-26T08:05:59.677Z,6.07
2022-10-26T08:11:01.296Z,7.00
2022-10-26T08:16:04.123Z,7.03
2022-10-26T08:21:11.217Z,6.60
2022-10-26T08:26:13.449Z,6.50
2022-10-26T08:31:15.118Z,6.50
2022-10-26T08:36:19.906Z,6.90
2022-10-26T08:41:34.030Z,8.37
2022-10-26T08:46:38.016Z,6.27
2022-10-26T08:51:39.789Z,7.47
2022-10-26T08:56:45.968Z,8.17
2022-10-26T09:01:50.389Z,7.63
2022-10-26T09:07:02.511Z,8.00
2022-10-26T09:12:10.895Z,7.10
2022-10-26T09:17:33.267Z,7.17
2022-10-26T09:22:56.741Z,7.10
2022-10-26T09:28:00.664Z,7.50
2022-10-26T09:33:14.989Z,6.50
2022-10-26T09:38:30.690Z,19.33
2022-10-26T09:48:55.361Z,6.40
2022-10-26T09:53:57.533Z,6.60
2022-10-26T09:59:04.438Z,6.73
2022-10-26T10:04:20.066Z,6.80
2022-10-26T10:09:22.826Z,5.93
2022-10-26T10:14:47.396Z,5.80
2022-10-26T10:19:49.024Z,4.53
2022-10-26T10:24:55.408Z,4.63
2022-10-26T10:30:01.329Z,4.43
2022-10-26T10:35:25.263Z,4.10
2022-10-26T10:40:27.848Z,4.77
2022-10-26T10:45:30.188Z,8.23
2022-10-26T10:50:32.823Z,4.87
2022-10-26T10:55:34.469Z,3.60
2022-10-26T11:00:36.927Z,3.83
2022-10-26T11:05:45.420Z,3.73
2022-10-26T11:10:51.584Z,3.20
2022-10-26T11:15:56.558Z,3.17
2022-10-26T11:21:23.046Z,3.00
2022-10-26T11:26:31.305Z,3.00
2022-10-26T11:31:42.136Z,2.70
2022-10-26T11:36:44.197Z,2.33
2022-10-26T11:42:00.879Z,2.00
2022-10-26T11:47:18.074Z,2.23
2022-10-26T11:52:28.607Z,2.77
2022-10-26T11:57:32.304Z,2.40
2022-10-26T12:07:50.462Z,2.53
2022-10-26T12:13:34.250Z,2.40
2022-10-26T12:19:01.279Z,2.70
2022-10-26T12:24:22.842Z,2.60
2022-10-26T12:29:45.379Z,2.40
2022-10-26T12:34:47.097Z,2.80
2022-10-26T12:39:48.773Z,2.83
2022-10-26T12:44:53.431Z,2.80
2022-10-26T12:50:02.563Z,2.20
2022-10-26T12:55:22.422Z,2.40
2022-10-26T13:00:27.345Z,2.63
2022-10-26T13:06:06.273Z,2.63
2022-10-26T13:11:15.457Z,2.90
2022-10-26T13:16:17.130Z,2.50
2022-10-26T13:21:19.742Z,2.37
2022-10-26T13:26:24.088Z,2.30
2022-10-26T13:31:28.576Z,2.40
2022-10-26T13:36:36.953Z,2.50
2022-10-26T13:41:40.639Z,2.70
2022-10-26T13:46:42.318Z,2.93
2022-10-26T13:51:44.845Z,2.50
2022-10-26T13:57:17.442Z,2.50
2022-10-26T14:02:20.117Z,2.43
2022-10-26T14:07:24.488Z,2.67
2022-10-26T14:12:26.595Z,2.70
2022-10-26T14:17:28.211Z,2.70
2022-10-26T14:22:30.091Z,2.43
2022-10-26T14:27:32.918Z,2.27
2022-10-26T14:32:36.604Z,2.03
2022-10-26T14:37:58.004Z,3.20
2022-10-26T14:42:59.908Z,10.70
2022-10-26T14:48:02.101Z,4.63
2022-10-26T14:53:14.657Z,3.37
2022-10-26T15:03:29.186Z,2.93
2022-10-26T15:08:55.991Z,3.43
2022-10-26T15:13:58.322Z,3.00
2022-10-26T15:19:06.540Z,3.93
2022-10-26T15:24:17.677Z,3.23
2022-10-26T15:29:44.068Z,2.83
2022-10-26T15:35:19.413Z,2.90
2022-10-26T15:40:21.299Z,3.17
2022-10-26T15:45:24.741Z,2.93
2022-10-26T15:50:27.771Z,2.90
2022-10-26T15:55:29.567Z,3.90
2022-10-26T16:00:31.222Z,3.00
2022-10-26T16:05:32.894Z,3.00
2022-10-26T16:10:34.552Z,4.87
2022-10-26T16:15:36.375Z,6.63
2022-10-26T16:20:38.017Z,3.57
2022-10-26T16:25:44.414Z,3.80
2022-10-26T16:30:46.054Z,4.10
2022-10-26T16:35:55.391Z,4.90
2022-10-26T16:41:18.518Z,4.50
2022-10-26T16:46:20.709Z,6.33
2022-10-26T16:51:26.752Z,4.23
2022-10-26T16:56:29.810Z,4.63
2022-10-26T17:01:32.232Z,7.70
2022-10-26T17:06:33.947Z,7.50
2022-10-26T17:11:35.586Z,6.90
2022-10-26T17:16:37.238Z,8.70
2022-10-26T17:21:38.911Z,8.83
2022-10-26T17:26:40.658Z,8.80
2022-10-26T17:31:42.357Z,7.63
2022-10-26T17:36:44.124Z,7.60
2022-10-26T17:41:46.131Z,8.03
2022-10-26T17:46:47.775Z,7.43
2022-10-26T17:51:49.443Z,7.43
2022-10-26T17:56:51.119Z,8.57
2022-10-26T18:01:52.891Z,8.00
2022-10-26T18:06:54.604Z,7.70
2022-10-26T18:11:56.489Z,7.70
2022-10-26T18:16:58.193Z,6.87
2022-10-26T18:22:00.457Z,7.53
2022-10-26T18:27:02.105Z,7.50
2022-10-26T18:32:03.949Z,9.57
2022-10-26T18:37:05.739Z,9.63
2022-10-26T18:42:07.372Z,9.03
2022-10-26T18:47:09.012Z,7.03
2022-10-26T18:52:10.705Z,7.67
2022-10-26T18:57:12.389Z,7.23
2022-10-26T19:02:14.583Z,7.37
2022-10-26T19:07:16.472Z,7.30
2022-10-26T19:12:18.101Z,7.00
2022-10-26T19:17:19.846Z,7.50
2022-10-26T19:22:21.576Z,6.97
2022-10-26T19:27:23.213Z,5.90
2022-10-26T19:32:28.208Z,6.63
2022-10-26T19:37:29.906Z,6.53
2022-10-26T19:42:31.545Z,7.00
2022-10-26T19:47:33.200Z,6.70
2022-10-26T19:52:36.465Z,6.97
2022-10-26T19:57:38.204Z,6.80
2022-10-26T20:02:39.876Z,8.57
2022-10-26T20:07:41.510Z,7.50
2022-10-26T20:12:43.190Z,7.13
2022-10-26T20:17:44.864Z,7.23
2022-10-26T20:22:46.714Z,7.70
2022-10-26T20:27:48.831Z,8.47
2022-10-26T20:32:50.745Z,9.07
2022-10-26T20:37:53.703Z,8.10
2022-10-26T20:42:55.761Z,7.47
2022-10-26T20:47:58.173Z,9.50
2022-10-26T20:53:02.712Z,8.40
2022-10-26T20:58:09.423Z,7.80
2022-10-26T21:03:12.816Z,8.00
2022-10-26T21:08:14.795Z,7.17
2022-10-26T21:13:16.561Z,7.80
2022-10-26T21:18:18.254Z,6.57
2022-10-26T21:23:19.956Z,6.87
2022-10-26T21:28:21.642Z,7.90
2022-10-26T21:33:31.746Z,7.53
2022-10-26T21:38:33.552Z,7.80
2022-10-26T21:43:36.069Z,7.20
2022-10-26T21:48:37.776Z,7.70
2022-10-26T21:53:39.975Z,7.07
2022-10-26T21:58:41.715Z,6.47
2022-10-26T22:03:43.531Z,6.17
2022-10-26T22:08:45.935Z,7.47
2022-10-26T22:13:48.256Z,7.40
2022-10-26T22:18:50.811Z,7.67
2022-10-26T22:23:52.624Z,7.30
2022-10-26T22:28:55.873Z,7.10
2022-10-26T22:34:01.962Z,8.00
2022-10-26T22:39:06.509Z,7.30
2022-10-26T22:44:08.123Z,9.40
2022-10-26T22:49:11.033Z,7.83
2022-10-26T22:54:12.885Z,7.30
2022-10-26T22:59:14.525Z,8.00
2022-10-26T23:04:16.621Z,8.10
2022-10-26T23:09:18.872Z,7.23
2022-10-26T23:14:20.575Z,8.40
2022-10-26T23:19:22.193Z,7.77
2022-10-26T23:24:23.849Z,7.80
2022-10-26T23:29:25.493Z,7.87
2022-10-26T23:34:27.434Z,8.40
2022-10-26T23:39:29.055Z,8.03
2022-10-26T23:44:30.734Z,7.53
2022-10-26T23:49:32.457Z,7.80
2022-10-26T23:54:34.105Z,6.87
2022-10-26T23:59:35.754Z,6.97
